Time;durP1;ratioP1;P1;durP2;ratioP2;P2;SDS_P1;SDS_P2;PMS_P1;PMS_P2;Temp;Humidity;BMP_temperature;BMP_pressure;BME280_temperature;BME280_humidity;BME280_pressure;Samples;Min_cycle;Max_cycle;Signal;HPM_P1;HPM_P2
2021/05/12 04:02:16;;;;;;;28.40;25.77;;;11.20;99.90;;;;;;4785126;29;20456;-83
2021/05/12 04:04:42;;;;;;;30.67;27.63;;;11.20;99.90;;;;;;4829971;29;20463;-78
2021/05/12 04:07:20;;;;;;;32.00;28.63;;;11.30;99.90;;;;;;4825125;29;20581;-85
2021/05/12 04:09:48;;;;;;;27.30;23.70;;;11.20;99.90;;;;;;4866211;29;20556;-85
2021/05/12 04:12:15;;;;;;;30.03;21.50;;;11.30;99.90;;;;;;4867397;29;20870;-80
2021/05/12 04:18:05;;;;;;;28.70;20.63;;;11.20;99.90;;;;;;4770584;30;20460;-82
2021/05/12 04:21:18;;;;;;;22.23;17.37;;;11.30;99.90;;;;;;4825097;29;20475;-83
2021/05/12 04:30:54;;;;;;;23.30;16.80;;;11.50;99.90;;;;;;4716103;30;20513;-81
2021/05/12 05:46:16;;;;;;;26.70;9.37;;;12.80;99.90;;;;;;4804015;29;20558;-82
2021/05/12 06:27:56;;;;;;;;;;;;;;;;;;;;;
2021/05/12 06:37:45;;;;;;;24.27;4.10;;;14.20;78.30;;;;;;4624533;30;20805;-82
2021/05/12 06:49:35;;;;;;;28.27;4.70;;;14.90;53.30;;;;;;4694541;30;20504;-83
2021/05/12 06:52:50;;;;;;;;;;;;;;;;;;;;;
2021/05/12 06:59:18;;;;;;;31.43;3.83;;;15.60;48.00;;;;;;4995960;24;20533;-82
2021/05/12 07:02:16;;;;;;;28.83;4.03;;;15.70;49.20;;;;;;4763561;29;20469;-83
2021/05/12 07:05:19;;;;;;;31.50;3.57;;;15.80;46.90;;;;;;4763544;30;20468;-83
2021/05/12 07:11:32;;;;;;;26.37;3.67;;;15.80;41.20;;;;;;4817631;29;20853;-82
2021/05/12 07:17:17;;;;;;;27.00;3.77;;;15.10;46.70;;;;;;4729739;30;20640;-83
2021/05/12 07:19:46;;;;;;;22.77;3.33;;;14.50;48.30;;;;;;4749518;30;20469;-82
2021/05/12 07:22:26;;;;;;;;;;;;;;;;;;;;;
2021/05/12 07:29:08;;;;;;;;;;;;;;;;;;;;;
2021/05/12 07:35:48;;;;;;;;;;;;;;;;;;;;;
2021/05/12 07:38:50;;;;;;;23.40;4.40;;;14.90;47.90;;;;;;4744596;30;20555;-81
2021/05/12 07:41:50;;;;;;;;;;;;;;;;;;;;;
2021/05/12 07:44:49;;;;;;;21.70;4.63;;;15.20;48.80;;;;;;4844271;29;20808;-82
2021/05/12 07:47:55;;;;;;;;;;;;;;;;;;;;;
2021/05/12 07:50:36;;;;;;;;;;;;;;;;;;;;;
2021/05/12 07:53:53;;;;;;;;;;;;;;;;;;;;;
2021/05/12 07:56:51;;;;;;;26.07;4.60;;;15.50;46.40;;;;;;4771305;29;20549;-82
2021/05/12 07:59:28;;;;;;;;;;;;;;;;;;;;;
2021/05/12 08:01:54;;;;;;;29.30;6.30;;;15.70;43.10;;;;;;4800486;29;20461;-82
2021/05/12 08:05:01;;;;;;;;;;;;;;;;;;;;;
2021/05/12 08:07:58;;;;;;;;;;;;;;;;;;;;;
2021/05/12 08:10:47;;;;;;;36.13;6.10;;;17.10;33.50;;;;;;4728937;30;20466;-82
2021/05/12 08:13:28;;;;;;;29.83;6.33;;;17.00;30.30;;;;;;4841738;29;20465;-81
2021/05/12 08:15:57;;;;;;;39.23;6.60;;;16.50;29.70;;;;;;4842406;29;20465;-82
2021/05/12 08:18:30;;;;;;;30.97;5.30;;;16.40;32.00;;;;;;4841187;29;20461;-82
2021/05/12 08:21:11;;;;;;;30.37;6.63;;;16.50;34.20;;;;;;4844256;29;20847;-82
2021/05/12 08:24:00;;;;;;;29.70;6.30;;;16.60;32.10;;;;;;4845008;29;20464;-78
2021/05/12 08:30:10;;;;;;;;;;;;;;;;;;;;;
2021/05/12 08:33:27;;;;;;;;;;;;;;;;;;;;;
2021/05/12 08:40:04;;;;;;;31.53;7.23;;;15.90;39.00;;;;;;4844795;29;20476;-84
2021/05/12 08:43:16;;;;;;;;;;;;;;;;;;;;;
2021/05/12 08:49:55;;;;;;;;;;;;;;;;;;;;;
2021/05/12 08:53:08;;;;;;;27.27;6.33;;;15.40;40.70;;;;;;4795365;29;20455;-84
2021/05/12 08:55:53;;;;;;;26.20;5.60;;;15.50;40.60;;;;;;4806126;29;20928;-81
2021/05/12 09:01:17;;;;;;;30.93;8.53;;;15.80;40.40;;;;;;4823471;29;20469;-82
2021/05/12 09:04:15;;;;;;;;;;;;;;;;;;;;;
2021/05/12 09:06:46;;;;;;;29.73;6.90;;;16.00;36.40;;;;;;4824385;29;20475;-82
2021/05/12 09:12:12;;;;;;;26.90;7.37;;;16.20;35.80;;;;;;4861260;29;20472;-82
2021/05/12 09:15:16;;;;;;;32.87;6.60;;;16.50;34.60;;;;;;4862760;29;21018;-82
2021/05/12 09:18:20;;;;;;;;;;;;;;;;;;;;;
2021/05/12 09:21:01;;;;;;;29.13;7.43;;;16.90;32.10;;;;;;4805249;29;20551;-83
2021/05/12 09:23:42;;;;;;;30.03;7.63;;;17.30;29.60;;;;;;4805581;29;20473;-82
2021/05/12 09:26:20;;;;;;;33.83;7.07;;;17.10;29.30;;;;;;4824584;29;20460;-83
2021/05/12 09:33:16;;;;;;;;;;;;;;;;;;;;;
2021/05/12 09:36:23;;;;;;;;;;;;;;;;;;;;;
2021/05/12 09:39:39;;;;;;;33.03;7.70;;;17.50;23.90;;;;;;4755496;29;20499;-83
2021/05/12 09:42:37;;;;;;;;;;;;;;;;;;;;;
2021/05/12 09:45:41;;;;;;;;;;;;;;;;;;;;;
2021/05/12 09:48:18;;;;;;;;;;;;;;;;;;;;;
2021/05/12 09:54:38;;;;;;;;;;;;;;;;;;;;;
2021/05/12 09:57:06;;;;;;;31.73;6.53;;;17.30;25.80;;;;;;4755671;30;20497;-80
2021/05/12 10:00:25;;;;;;;27.00;5.73;;;17.70;21.10;;;;;;4769052;30;20521;-83
2021/05/12 10:06:57;;;;;;;;;;;;;;;;;;;;;
2021/05/12 10:09:49;;;;;;;31.47;4.93;;;18.50;17.00;;;;;;4789521;29;20575;-83
2021/05/12 10:28:02;;;;;;;35.23;5.70;;;18.90;8.80;;;;;;4613444;31;20620;-81
2021/05/12 10:30:28;;;;;;;34.47;6.10;;;18.40;16.30;;;;;;4726353;30;21029;-81
2021/05/12 10:32:57;;;;;;;34.90;5.80;;;18.10;18.30;;;;;;4799755;29;20471;-79
2021/05/12 10:36:26;;;;;;;;;;;;;;;;;;;;;
2021/05/12 10:39:23;;;;;;;;;;;;;;;;;;;;;
2021/05/12 10:45:58;;;;;;;30.13;4.17;;;18.50;14.10;;;;;;4732416;30;20976;-83
2021/05/12 10:48:43;;;;;;;31.90;4.60;;;19.00;11.50;;;;;;4732259;30;20524;-81
2021/05/12 10:51:41;;;;;;;34.47;4.00;;;20.00;5.10;;;;;;4807678;29;20968;-84
2021/05/12 10:54:09;;;;;;;30.17;3.50;;;20.60;1.00;;;;;;4860712;29;20460;-82
2021/05/12 11:22:37;;;;;;;33.30;4.03;;;20.10;4.60;;;;;;3895738;23;20547;-85
2021/05/12 11:31:26;;;;;;;30.30;3.93;;;19.30;2.80;;;;;;4755115;30;20588;-82
2021/05/12 11:39:30;;;;;;;30.77;3.70;;;19.50;1.00;;;;;;5679494;24;20506;-80
2021/05/12 12:12:10;;;;;;;32.80;3.90;;;19.30;1.00;;;;;;4723917;29;21039;-81
2021/05/12 12:21:48;;;;;;;33.80;4.00;;;21.40;1.00;;;;;;4652813;30;20534;-80
2021/05/12 12:25:02;;;;;;;33.97;3.60;;;22.00;1.00;;;;;;4778585;30;20467;-86
2021/05/12 12:31:53;;;;;;;36.67;3.17;;;23.40;1.00;;;;;;4665684;30;20470;-87
2021/05/12 13:41:27;;;;;;;36.57;3.80;;;21.90;1.00;;;;;;4856764;29;20476;-79
2021/05/12 13:43:53;;;;;;;36.37;3.47;;;22.10;1.00;;;;;;4854525;29;20456;-78
2021/05/12 13:46:19;;;;;;;37.30;3.50;;;21.80;1.00;;;;;;4851962;29;20500;-77
2021/05/12 13:48:45;;;;;;;39.80;4.70;;;21.80;1.00;;;;;;4845477;29;20580;-77
2021/05/12 13:57:28;;;;;;;36.60;4.20;;;20.90;1.00;;;;;;5207156;23;21432;-86
2021/05/12 14:00:06;;;;;;;34.77;4.10;;;21.00;1.00;;;;;;4843065;29;20997;-80
2021/05/12 14:02:52;;;;;;;34.13;3.30;;;20.60;1.00;;;;;;4841953;29;21087;-82
2021/05/12 14:21:30;;;;;;;31.70;3.37;;;19.70;1.00;;;;;;5295062;23;20535;-81
2021/05/12 14:23:56;;;;;;;34.33;3.67;;;19.80;1.00;;;;;;4876545;29;20484;-82
2021/05/12 14:29:59;;;;;;;31.37;3.60;;;19.40;1.00;;;;;;4841071;29;20493;-82
2021/05/12 14:33:06;;;;;;;31.53;3.03;;;19.70;1.00;;;;;;4841779;29;20820;-83
2021/05/12 14:35:32;;;;;;;31.50;2.73;;;19.70;1.00;;;;;;4838686;29;21024;-83
2021/05/12 14:38:04;;;;;;;30.27;3.20;;;19.50;1.00;;;;;;4834325;29;20496;-83
2021/05/12 14:40:30;;;;;;;31.10;2.77;;;19.50;1.00;;;;;;4842031;29;20464;-79
2021/05/12 14:42:57;;;;;;;30.57;3.30;;;20.20;1.00;;;;;;4842340;29;20597;-79
2021/05/12 14:45:24;;;;;;;30.30;2.70;;;21.50;1.00;;;;;;4841791;29;20464;-79
2021/05/12 14:48:03;;;;;;;37.03;2.60;;;22.10;1.00;;;;;;4840329;29;20548;-80
2021/05/12 15:07:42;;;;;;;35.23;3.13;;;20.60;1.00;;;;;;4831451;29;20465;-84
2021/05/12 15:10:12;;;;;;;38.30;2.67;;;20.40;1.00;;;;;;4840012;29;20485;-83
2021/05/12 15:16:20;;;;;;;34.37;2.80;;;19.90;1.00;;;;;;4840773;29;20453;-84
2021/05/12 15:19:30;;;;;;;;;;;;;;;;;;;;;
2021/05/12 15:26:04;;;;;;;31.53;2.40;;;20.20;1.00;;;;;;4784323;29;20492;-83
2021/05/12 15:31:19;;;;;;;32.80;2.50;;;20.60;1.00;;;;;;4800489;29;20617;-79
2021/05/12 15:37:08;;;;;;;33.60;3.30;;;20.40;1.00;;;;;;4799841;29;20452;-80
2021/05/12 15:39:36;;;;;;;33.70;3.10;;;20.00;1.00;;;;;;4801302;29;20542;-83
2021/05/12 15:42:20;;;;;;;33.33;3.40;;;19.60;1.00;;;;;;4803727;29;20975;-83
2021/05/12 15:45:25;;;;;;;34.13;4.37;;;19.10;1.00;;;;;;4802787;29;20503;-84
2021/05/12 15:48:25;;;;;;;31.37;2.70;;;17.90;1.00;;;;;;4801613;29;20553;-82
2021/05/12 15:50:59;;;;;;;30.97;2.70;;;17.10;1.00;;;;;;4795653;29;20485;-84
2021/05/12 15:53:34;;;;;;;28.23;2.20;;;16.80;2.30;;;;;;4826508;29;20969;-83
2021/05/12 15:56:40;;;;;;;26.27;1.80;;;16.40;2.70;;;;;;4841825;29;20461;-85
2021/05/12 15:59:34;;;;;;;;;;;;;;;;;;;;;
2021/05/12 16:02:32;;;;;;;24.10;1.60;;;15.90;1.60;;;;;;4841624;29;20957;-85
2021/05/12 16:08:32;;;;;;;22.43;1.90;;;15.60;4.50;;;;;;4826507;29;20517;-86
2021/05/12 16:11:11;;;;;;;21.43;1.37;;;15.60;6.60;;;;;;4841070;29;20489;-85
2021/05/12 16:13:39;;;;;;;21.40;1.70;;;15.60;10.50;;;;;;4859317;29;20455;-84
2021/05/12 16:16:09;;;;;;;21.47;1.70;;;15.30;19.00;;;;;;4860294;29;20464;-84
2021/05/12 16:18:36;;;;;;;23.87;1.80;;;14.90;19.60;;;;;;4858684;29;20460;-83
2021/05/12 16:21:03;;;;;;;21.50;2.53;;;14.40;30.00;;;;;;4860089;29;20492;-82
2021/05/12 16:23:29;;;;;;;19.27;1.50;;;14.00;52.50;;;;;;4859389;29;20484;-84
2021/05/12 16:25:56;;;;;;;21.67;1.80;;;13.50;60.10;;;;;;4860061;29;20457;-84
2021/05/12 16:28:26;;;;;;;17.17;1.60;;;13.20;77.70;;;;;;4859409;29;20821;-84
2021/05/12 16:31:18;;;;;;;19.17;2.60;;;13.00;91.80;;;;;;4859936;29;20464;-83
2021/05/12 16:33:46;;;;;;;26.80;3.00;;;12.70;99.90;;;;;;4858205;29;21058;-83
2021/05/12 16:36:13;;;;;;;16.17;3.57;;;12.50;99.90;;;;;;4841864;29;20534;-83
2021/05/12 16:38:39;;;;;;;17.10;2.97;;;12.40;99.90;;;;;;4858636;29;20460;-82
2021/05/12 16:41:05;;;;;;;16.80;2.90;;;12.30;99.90;;;;;;4858583;29;21055;-82
2021/05/12 16:43:34;;;;;;;15.83;2.90;;;12.20;99.90;;;;;;4869099;29;20467;-82
2021/05/12 16:46:01;;;;;;;15.63;4.13;;;12.10;99.90;;;;;;4844188;29;21001;-81
2021/05/12 16:48:37;;;;;;;17.83;4.13;;;12.00;99.90;;;;;;4860663;29;20480;-83
2021/05/12 16:51:04;;;;;;;14.67;3.43;;;11.90;99.90;;;;;;4862335;29;20460;-83
2021/05/12 16:53:34;;;;;;;14.60;3.97;;;11.50;99.90;;;;;;4861258;29;20552;-83
2021/05/12 16:56:00;;;;;;;14.63;3.80;;;11.30;99.90;;;;;;4860868;29;20473;-84
2021/05/12 16:58:29;;;;;;;14.00;5.20;;;11.30;99.90;;;;;;4861938;29;20465;-83
2021/05/12 17:01:08;;;;;;;27.10;24.90;;;11.20;99.90;;;;;;4862109;29;20468;-84
2021/05/12 17:03:52;;;;;;;29.83;27.33;;;11.30;99.90;;;;;;4860548;29;20520;-83
2021/05/12 17:06:29;;;;;;;24.97;22.80;;;11.30;99.90;;;;;;4861512;29;20456;-82
2021/05/12 17:09:24;;;;;;;23.30;18.10;;;11.10;99.90;;;;;;4858280;29;20579;-85
2021/05/12 17:12:01;;;;;;;25.57;23.67;;;11.50;99.90;;;;;;4861847;29;20956;-84
2021/05/12 17:18:23;;;;;;;;;;;;;;;;;;;;;
2021/05/12 17:30:17;;;;;;;24.43;22.60;;;13.70;99.90;;;;;;4682961;30;20538;-84
2021/05/12 17:39:20;;;;;;;31.33;29.03;;;18.30;84.70;;;;;;4700201;30;20546;-83
2021/05/12 17:48:29;;;;;;;14.83;2.27;;;22.60;17.60;;;;;;4632335;30;21001;-83
2021/05/12 17:51:01;;;;;;;16.83;2.07;;;21.80;13.50;;;;;;4738943;30;20472;-85
2021/05/12 17:56:29;;;;;;;18.20;2.10;;;18.20;22.50;;;;;;4820848;29;20465;-83
2021/05/12 17:59:21;;;;;;;17.57;1.80;;;16.60;32.20;;;;;;4804025;29;20455;-83
2021/05/12 18:01:59;;;;;;;19.90;3.43;;;15.70;50.40;;;;;;4807252;29;20497;-83
2021/05/12 18:04:36;;;;;;;18.80;4.80;;;15.30;66.50;;;;;;4842192;29;20980;-83
2021/05/12 18:07:07;;;;;;;16.90;4.67;;;15.00;83.10;;;;;;4860535;29;20470;-83
2021/05/12 18:09:43;;;;;;;20.30;10.90;;;14.60;89.60;;;;;;4860709;29;20492;-83
2021/05/12 18:12:22;;;;;;;20.10;17.20;;;14.80;99.90;;;;;;4861571;29;20551;-83
2021/05/12 18:17:31;;;;;;;19.60;16.10;;;14.90;99.90;;;;;;4821479;29;20531;-82
2021/05/12 18:19:59;;;;;;;17.53;10.10;;;14.90;99.90;;;;;;4862549;29;20453;-83
2021/05/12 18:22:37;;;;;;;16.40;8.53;;;14.90;94.50;;;;;;4861522;29;20484;-83
2021/05/12 18:25:06;;;;;;;15.90;6.60;;;14.30;98.80;;;;;;4861622;29;20860;-83
2021/05/12 18:27:34;;;;;;;19.13;6.60;;;14.10;98.90;;;;;;4857756;29;20851;-83
2021/05/12 18:30:10;;;;;;;17.10;8.63;;;13.90;99.90;;;;;;4859940;29;20563;-82
2021/05/12 18:32:44;;;;;;;17.00;9.93;;;13.70;99.90;;;;;;4859095;29;20960;-83
2021/05/12 18:35:17;;;;;;;17.87;12.80;;;13.60;99.90;;;;;;4859824;29;20528;-83
2021/05/12 18:37:47;;;;;;;18.40;12.40;;;13.20;99.90;;;;;;4862752;29;20491;-84
2021/05/12 18:40:16;;;;;;;21.73;19.70;;;13.20;99.90;;;;;;4858412;29;20470;-82
2021/05/12 18:42:43;;;;;;;27.47;25.17;;;13.00;99.90;;;;;;4868216;29;20890;-82
2021/05/12 18:45:20;;;;;;;36.67;34.07;;;12.80;99.90;;;;;;4865832;29;20817;-83
2021/05/12 18:48:04;;;;;;;47.73;44.83;;;12.40;99.90;;;;;;4859907;29;20471;-84
2021/05/12 18:50:39;;;;;;;56.47;53.37;;;12.30;99.90;;;;;;4842681;29;20493;-84
2021/05/12 18:53:21;;;;;;;63.27;59.80;;;12.20;99.90;;;;;;4859683;29;20492;-84
2021/05/12 18:55:50;;;;;;;83.20;79.07;;;11.90;99.90;;;;;;4861202;29;20887;-83
2021/05/12 18:58:18;;;;;;;94.07;89.40;;;11.80;99.90;;;;;;4859034;29;20467;-82
2021/05/12 19:00:47;;;;;;;93.20;88.30;;;11.80;99.90;;;;;;4858657;29;20458;-84
2021/05/12 19:03:15;;;;;;;102.60;97.53;;;11.50;99.90;;;;;;4857494;29;20468;-84
2021/05/12 19:05:53;;;;;;;84.97;80.33;;;11.50;99.90;;;;;;4859939;29;20875;-84
2021/05/12 19:08:30;;;;;;;63.83;59.97;;;11.40;99.90;;;;;;4858869;29;20463;-82
2021/05/12 19:11:02;;;;;;;79.10;74.77;;;11.40;99.90;;;;;;4856506;29;20555;-83
2021/05/12 19:13:39;;;;;;;89.83;85.40;;;11.20;99.90;;;;;;4859615;29;20456;-83
2021/05/12 19:16:10;;;;;;;109.17;103.60;;;11.00;99.90;;;;;;4859642;29;20463;-83
2021/05/12 19:18:44;;;;;;;122.77;116.63;;;10.90;99.90;;;;;;4858664;29;20543;-83
2021/05/12 19:21:17;;;;;;;127.80;121.53;;;10.90;99.90;;;;;;4860682;29;20456;-84
2021/05/12 19:23:54;;;;;;;123.67;117.23;;;10.80;99.90;;;;;;4860594;29;20484;-82
2021/05/12 19:26:29;;;;;;;121.20;114.73;;;10.60;99.90;;;;;;4860035;29;20984;-83
2021/05/12 19:29:15;;;;;;;134.53;127.93;;;10.40;99.90;;;;;;4860222;29;20484;-84
2021/05/12 19:40:05;;;;;;;152.33;144.83;;;10.30;99.90;;;;;;4860295;29;20452;-83
2021/05/12 19:40:28;;;;;;;170.30;162.17;;;10.40;99.90;;;;;;4860414;29;21093;-84
2021/05/12 19:43:04;;;;;;;178.57;170.27;;;10.10;99.90;;;;;;4860253;29;20453;-83
2021/05/12 19:45:46;;;;;;;185.60;177.13;;;10.20;99.90;;;;;;4860576;29;20468;-83
2021/05/12 19:48:15;;;;;;;185.93;177.23;;;10.20;99.90;;;;;;4859419;29;20457;-83
2021/05/12 19:50:46;;;;;;;205.83;196.63;;;10.20;99.90;;;;;;4860303;29;20487;-84
2021/05/12 19:53:14;;;;;;;206.17;196.70;;;10.20;99.90;;;;;;4859624;29;20816;-83
2021/05/12 19:55:53;;;;;;;205.70;196.77;;;10.10;99.90;;;;;;4859799;29;20471;-83
2021/05/12 19:58:26;;;;;;;210.53;201.23;;;9.90;99.90;;;;;;4860561;29;20471;-82
2021/05/12 20:00:53;;;;;;;210.43;200.87;;;9.80;99.90;;;;;;4844513;29;20453;-83
2021/05/12 20:03:26;;;;;;;222.17;212.07;;;9.80;99.90;;;;;;4858132;29;20457;-83
2021/05/12 20:06:05;;;;;;;227.30;216.73;;;9.90;99.90;;;;;;4860093;29;20516;-83
2021/05/12 20:08:36;;;;;;;234.50;223.83;;;9.90;99.90;;;;;;4859983;29;20505;-82
2021/05/12 20:11:11;;;;;;;241.37;230.10;;;9.80;99.90;;;;;;4860027;29;20539;-83
2021/05/12 20:13:38;;;;;;;231.30;220.63;;;9.80;99.90;;;;;;4859888;29;20455;-83
2021/05/12 20:16:06;;;;;;;235.53;224.23;;;9.80;99.90;;;;;;4861583;29;20471;-84
2021/05/12 20:18:59;;;;;;;240.30;229.43;;;9.80;99.90;;;;;;4862176;29;20460;-82
2021/05/12 20:21:29;;;;;;;254.40;243.20;;;9.80;99.90;;;;;;4848841;29;20523;-84
2021/05/12 20:24:02;;;;;;;255.93;244.60;;;9.90;99.90;;;;;;4863610;29;20468;-83
2021/05/12 20:26:28;;;;;;;258.33;246.57;;;9.90;99.90;;;;;;4863289;29;21048;-83
2021/05/12 20:31:52;;;;;;;263.03;251.43;;;10.00;99.90;;;;;;4861403;29;20987;-83
2021/05/12 20:37:02;;;;;;;266.77;254.47;;;10.00;99.90;;;;;;4842306;29;20937;-83
2021/05/12 20:39:32;;;;;;;275.00;262.70;;;9.90;99.90;;;;;;4863479;29;20452;-84
2021/05/12 20:42:01;;;;;;;269.07;257.00;;;9.90;99.90;;;;;;4863034;29;20456;-84
2021/05/12 20:44:27;;;;;;;264.53;252.53;;;10.00;99.90;;;;;;4863502;29;20580;-84
2021/05/12 20:46:58;;;;;;;261.27;249.60;;;10.10;99.90;;;;;;4862880;29;20515;-83
2021/05/12 20:49:24;;;;;;;271.33;259.20;;;10.00;99.90;;;;;;4862336;29;20904;-84
2021/05/12 20:51:52;;;;;;;278.30;265.83;;;10.00;99.90;;;;;;4863010;29;20496;-84
2021/05/12 20:54:20;;;;;;;284.83;272.40;;;10.10;99.90;;;;;;4863150;29;20831;-83
2021/05/12 20:56:59;;;;;;;294.80;281.73;;;10.30;99.90;;;;;;4862733;29;20488;-83
2021/05/12 20:59:31;;;;;;;293.37;280.57;;;10.30;99.90;;;;;;4863168;29;20823;-83
2021/05/12 21:01:57;;;;;;;289.70;277.20;;;10.20;99.90;;;;;;4862914;29;20489;-83
2021/05/12 21:04:23;;;;;;;298.30;285.57;;;10.10;99.90;;;;;;4861989;29;20516;-83
2021/05/12 21:06:52;;;;;;;303.97;290.77;;;10.10;99.90;;;;;;4862727;29;20952;-83
2021/05/12 21:09:22;;;;;;;290.57;277.80;;;10.10;99.90;;;;;;4862969;29;21004;-83
2021/05/12 21:11:53;;;;;;;285.87;272.83;;;10.00;99.90;;;;;;4862557;29;20468;-83
2021/05/12 21:14:20;;;;;;;285.37;272.43;;;9.90;99.90;;;;;;4862856;29;20493;-83
2021/05/12 21:16:46;;;;;;;278.33;265.23;;;9.80;99.90;;;;;;4862686;29;20914;-83
2021/05/12 21:19:13;;;;;;;262.23;250.13;;;9.70;99.90;;;;;;4861945;29;20456;-83
2021/05/12 21:21:41;;;;;;;257.00;244.63;;;9.60;99.90;;;;;;4862167;29;20488;-83
2021/05/12 21:24:09;;;;;;;257.00;244.90;;;9.50;99.90;;;;;;4862738;29;20890;-83
2021/05/12 21:26:36;;;;;;;254.03;241.47;;;9.50;99.90;;;;;;4861988;29;20476;-83
2021/05/12 21:29:05;;;;;;;252.97;240.40;;;9.40;99.90;;;;;;4865664;29;20500;-83
2021/05/12 21:31:33;;;;;;;249.33;237.23;;;9.60;99.90;;;;;;4862532;29;20468;-84
2021/05/12 21:33:59;;;;;;;255.23;242.43;;;9.60;99.90;;;;;;4861559;29;20497;-83
2021/05/12 21:36:25;;;;;;;251.03;238.07;;;9.50;99.90;;;;;;4862377;29;20488;-83
2021/05/12 21:38:52;;;;;;;252.47;239.17;;;9.40;99.90;;;;;;4863829;29;20456;-82
2021/05/12 21:41:19;;;;;;;244.50;232.37;;;9.30;99.90;;;;;;4863725;29;20456;-83
2021/05/12 21:43:47;;;;;;;233.40;221.93;;;9.30;99.90;;;;;;4862432;29;21008;-83
2021/05/12 21:46:13;;;;;;;234.10;222.23;;;9.10;99.90;;;;;;4861666;29;20499;-83
2021/05/12 21:48:40;;;;;;;216.90;205.13;;;9.00;99.90;;;;;;4861321;29;20464;-83
2021/05/12 21:51:06;;;;;;;220.43;208.77;;;9.20;99.90;;;;;;4862313;29;20520;-83
2021/05/12 21:53:34;;;;;;;228.90;217.03;;;9.40;99.90;;;;;;4862101;29;20503;-83
2021/05/12 21:56:01;;;;;;;238.10;225.37;;;9.50;99.90;;;;;;4861689;29;20520;-83
2021/05/12 21:58:35;;;;;;;241.47;229.07;;;9.40;99.90;;;;;;4861912;29;20487;-83
2021/05/12 22:01:03;;;;;;;233.93;220.97;;;9.30;99.90;;;;;;4861900;29;20464;-83
2021/05/12 22:03:36;;;;;;;238.73;225.93;;;9.20;99.90;;;;;;4860915;29;20797;-82
2021/05/12 22:25:16;;;;;;;245.30;232.67;;;9.20;99.90;;;;;;4836059;29;21115;-83
2021/05/12 22:27:45;;;;;;;248.70;236.20;;;9.20;99.90;;;;;;4861671;29;21055;-83
2021/05/12 22:30:14;;;;;;;241.97;230.00;;;9.10;99.90;;;;;;4861236;29;20599;-83
2021/05/12 22:32:43;;;;;;;243.93;230.23;;;9.10;99.90;;;;;;4860591;29;20970;-83
2021/05/12 22:35:16;;;;;;;238.40;225.97;;;8.90;99.90;;;;;;4861319;29;20464;-83
2021/05/12 22:37:43;;;;;;;237.97;225.83;;;8.80;99.90;;;;;;4861000;29;20464;-82
2021/05/12 22:40:11;;;;;;;223.37;211.33;;;8.80;99.90;;;;;;4860692;29;20975;-84
2021/05/12 22:42:40;;;;;;;211.43;200.47;;;8.60;99.90;;;;;;4861198;29;20505;-82
2021/05/12 22:45:09;;;;;;;189.33;178.63;;;8.70;99.90;;;;;;4860883;29;20480;-82
2021/05/12 22:47:38;;;;;;;183.10;173.30;;;8.70;99.90;;;;;;4860207;29;20619;-82
2021/05/12 22:50:09;;;;;;;158.77;149.97;;;8.60;99.90;;;;;;4861403;29;20527;-83
2021/05/12 22:52:36;;;;;;;159.17;150.03;;;8.40;99.90;;;;;;4861306;29;20525;-82
2021/05/12 22:55:09;;;;;;;129.60;121.93;;;8.40;99.90;;;;;;4860713;29;20488;-83
2021/05/12 22:57:38;;;;;;;126.67;119.27;;;8.40;99.90;;;;;;4861211;29;20464;-82
2021/05/12 23:00:07;;;;;;;149.67;140.20;;;8.30;99.90;;;;;;4861068;29;20987;-83
2021/05/12 23:02:35;;;;;;;167.10;157.17;;;8.30;99.90;;;;;;4860023;29;20468;-83
2021/05/12 23:05:02;;;;;;;169.43;159.47;;;8.30;99.90;;;;;;4860346;29;20990;-81
2021/05/12 23:07:31;;;;;;;160.67;151.17;;;8.20;99.90;;;;;;4861062;29;20540;-82
2021/05/12 23:09:57;;;;;;;166.13;156.17;;;8.00;99.90;;;;;;4860495;29;21071;-81
2021/05/12 23:12:24;;;;;;;172.47;161.80;;;8.20;99.90;;;;;;4860767;29;20461;-82
2021/05/12 23:14:56;;;;;;;190.23;178.80;;;8.20;99.90;;;;;;4860553;29;20476;-83
2021/05/12 23:17:23;;;;;;;187.73;176.57;;;8.10;99.90;;;;;;4860712;29;20464;-82
2021/05/12 23:19:50;;;;;;;187.07;175.33;;;8.00;99.90;;;;;;4859669;29;20460;-83
2021/05/12 23:22:22;;;;;;;191.07;180.23;;;8.00;99.90;;;;;;4860571;29;21043;-82
2021/05/12 23:24:54;;;;;;;192.43;180.83;;;7.80;99.90;;;;;;4860616;29;20459;-82
2021/05/12 23:27:21;;;;;;;196.00;183.93;;;7.80;99.90;;;;;;4860622;29;20468;-82
2021/05/12 23:29:47;;;;;;;190.87;178.93;;;7.80;99.90;;;;;;4860340;29;20495;-83
2021/05/12 23:32:15;;;;;;;193.17;181.90;;;7.80;99.90;;;;;;4860642;29;20460;-83
2021/05/12 23:34:44;;;;;;;203.17;190.47;;;7.70;99.90;;;;;;4859176;29;20965;-83
2021/05/12 23:37:10;;;;;;;175.23;164.90;;;7.60;99.90;;;;;;4860679;29;20460;-82
2021/05/12 23:39:40;;;;;;;189.53;178.73;;;7.70;99.90;;;;;;4860404;29;20953;-83
2021/05/12 23:42:11;;;;;;;189.23;177.37;;;7.70;99.90;;;;;;4860710;29;20504;-82
2021/05/12 23:44:37;;;;;;;191.17;180.07;;;7.60;99.90;;;;;;4860073;29;20468;-83
2021/05/12 23:47:04;;;;;;;195.53;183.77;;;7.70;99.90;;;;;;4860397;29;20467;-82
2021/05/12 23:49:31;;;;;;;197.17;185.93;;;7.40;99.90;;;;;;4859672;29;20566;-81
2021/05/12 23:52:03;;;;;;;196.10;184.77;;;7.40;99.90;;;;;;4864506;29;20492;-83
2021/05/12 23:54:31;;;;;;;210.07;196.83;;;7.40;99.90;;;;;;4871253;29;20873;-83
2021/05/12 23:56:58;;;;;;;205.07;192.77;;;7.40;99.90;;;;;;4882582;29;20554;-83
2021/05/12 23:59:25;;;;;;;199.93;187.43;;;7.30;99.90;;;;;;4876487;29;20460;-82
